sensor_id;sensor_type;location;lat;lon;timestamp;temperature;humidity
19847;DHT22;10084;50.518;8.588;2023-09-19T00:00:37;18.30;75.50
19847;DHT22;10084;50.518;8.588;2023-09-19T00:03:03;18.30;75.60
19847;DHT22;10084;50.518;8.588;2023-09-19T00:05:33;18.20;75.60
19847;DHT22;10084;50.518;8.588;2023-09-19T00:08:01;18.30;75.80
19847;DHT22;10084;50.518;8.588;2023-09-19T00:10:30;18.30;75.80
19847;DHT22;10084;50.518;8.588;2023-09-19T00:13:03;18.30;75.90
19847;DHT22;10084;50.518;8.588;2023-09-19T00:15:37;18.30;76.00
19847;DHT22;10084;50.518;8.588;2023-09-19T00:18:04;18.30;76.00
19847;DHT22;10084;50.518;8.588;2023-09-19T00:20:32;18.40;76.00
19847;DHT22;10084;50.518;8.588;2023-09-19T00:22:57;18.30;76.00
19847;DHT22;10084;50.518;8.588;2023-09-19T00:25:30;18.40;76.10
19847;DHT22;10084;50.518;8.588;2023-09-19T00:27:57;18.30;76.10
19847;DHT22;10084;50.518;8.588;2023-09-19T00:30:23;18.30;76.10
19847;DHT22;10084;50.518;8.588;2023-09-19T00:32:50;18.30;76.20
19847;DHT22;10084;50.518;8.588;2023-09-19T00:35:21;18.30;76.20
19847;DHT22;10084;50.518;8.588;2023-09-19T00:37:49;18.30;76.30
19847;DHT22;10084;50.518;8.588;2023-09-19T00:40:15;18.20;76.30
19847;DHT22;10084;50.518;8.588;2023-09-19T00:42:43;18.20;76.30
19847;DHT22;10084;50.518;8.588;2023-09-19T00:45:10;18.20;76.40
19847;DHT22;10084;50.518;8.588;2023-09-19T00:47:40;18.20;76.50
19847;DHT22;10084;50.518;8.588;2023-09-19T00:50:08;18.10;76.50
19847;DHT22;10084;50.518;8.588;2023-09-19T00:52:35;18.10;76.60
19847;DHT22;10084;50.518;8.588;2023-09-19T00:55:07;18.10;76.70
19847;DHT22;10084;50.518;8.588;2023-09-19T00:57:34;18.10;76.70
19847;DHT22;10084;50.518;8.588;2023-09-19T01:00:03;18.10;76.70
19847;DHT22;10084;50.518;8.588;2023-09-19T01:02:32;18.10;76.70
19847;DHT22;10084;50.518;8.588;2023-09-19T01:04:58;18.10;76.80
19847;DHT22;10084;50.518;8.588;2023-09-19T01:07:24;18.00;76.80
19847;DHT22;10084;50.518;8.588;2023-09-19T01:09:50;18.00;76.90
19847;DHT22;10084;50.518;8.588;2023-09-19T01:12:24;18.00;76.90
19847;DHT22;10084;50.518;8.588;2023-09-19T01:14:59;18.00;77.00
19847;DHT22;10084;50.518;8.588;2023-09-19T01:17:38;18.00;77.10
19847;DHT22;10084;50.518;8.588;2023-09-19T01:20:37;18.00;77.10
19847;DHT22;10084;50.518;8.588;2023-09-19T01:26:06;17.90;77.10
19847;DHT22;10084;50.518;8.588;2023-09-19T01:28:53;17.90;77.10
19847;DHT22;10084;50.518;8.588;2023-09-19T01:31:29;17.80;77.20
19847;DHT22;10084;50.518;8.588;2023-09-19T01:34:01;17.80;77.30
19847;DHT22;10084;50.518;8.588;2023-09-19T01:36:28;17.70;77.30
19847;DHT22;10084;50.518;8.588;2023-09-19T01:38:55;17.70;77.50
19847;DHT22;10084;50.518;8.588;2023-09-19T01:41:33;17.60;77.40
19847;DHT22;10084;50.518;8.588;2023-09-19T01:44:06;17.60;77.50
19847;DHT22;10084;50.518;8.588;2023-09-19T01:46:36;17.60;77.60
19847;DHT22;10084;50.518;8.588;2023-09-19T01:49:22;17.50;77.60
19847;DHT22;10084;50.518;8.588;2023-09-19T01:52:12;17.50;77.80
19847;DHT22;10084;50.518;8.588;2023-09-19T01:54:52;17.40;77.90
19847;DHT22;10084;50.518;8.588;2023-09-19T01:57:49;17.50;77.90
19847;DHT22;10084;50.518;8.588;2023-09-19T02:00:19;17.40;78.00
19847;DHT22;10084;50.518;8.588;2023-09-19T02:02:47;17.40;78.10
19847;DHT22;10084;50.518;8.588;2023-09-19T02:05:22;17.40;78.20
19847;DHT22;10084;50.518;8.588;2023-09-19T02:07:49;17.40;79.00
19847;DHT22;10084;50.518;8.588;2023-09-19T02:10:16;17.40;78.30
19847;DHT22;10084;50.518;8.588;2023-09-19T02:12:42;17.30;78.30
19847;DHT22;10084;50.518;8.588;2023-09-19T02:15:08;17.40;78.40
19847;DHT22;10084;50.518;8.588;2023-09-19T02:17:34;17.40;78.50
19847;DHT22;10084;50.518;8.588;2023-09-19T02:20:00;17.30;78.50
19847;DHT22;10084;50.518;8.588;2023-09-19T02:22:26;17.30;78.60
19847;DHT22;10084;50.518;8.588;2023-09-19T02:24:53;17.30;78.70
19847;DHT22;10084;50.518;8.588;2023-09-19T02:27:19;17.30;78.70
19847;DHT22;10084;50.518;8.588;2023-09-19T02:29:45;17.30;78.80
19847;DHT22;10084;50.518;8.588;2023-09-19T02:32:10;17.30;78.80
19847;DHT22;10084;50.518;8.588;2023-09-19T02:34:36;17.30;78.90
19847;DHT22;10084;50.518;8.588;2023-09-19T02:37:05;17.30;78.90
19847;DHT22;10084;50.518;8.588;2023-09-19T02:39:32;17.30;78.90
19847;DHT22;10084;50.518;8.588;2023-09-19T02:41:58;17.30;79.00
19847;DHT22;10084;50.518;8.588;2023-09-19T02:44:24;17.30;79.00
19847;DHT22;10084;50.518;8.588;2023-09-19T02:46:50;17.30;79.00
19847;DHT22;10084;50.518;8.588;2023-09-19T02:49:16;17.30;79.00
19847;DHT22;10084;50.518;8.588;2023-09-19T02:51:44;17.30;79.00
19847;DHT22;10084;50.518;8.588;2023-09-19T02:54:10;17.30;79.10
19847;DHT22;10084;50.518;8.588;2023-09-19T02:56:37;17.30;79.10
19847;DHT22;10084;50.518;8.588;2023-09-19T02:59:03;17.30;79.10
19847;DHT22;10084;50.518;8.588;2023-09-19T03:01:30;17.20;79.10
19847;DHT22;10084;50.518;8.588;2023-09-19T03:03:55;17.20;79.10
19847;DHT22;10084;50.518;8.588;2023-09-19T03:06:22;17.20;79.10
19847;DHT22;10084;50.518;8.588;2023-09-19T03:08:49;17.10;79.10
19847;DHT22;10084;50.518;8.588;2023-09-19T03:11:17;17.10;79.10
19847;DHT22;10084;50.518;8.588;2023-09-19T03:13:52;17.10;79.20
19847;DHT22;10084;50.518;8.588;2023-09-19T03:16:19;17.10;79.20
19847;DHT22;10084;50.518;8.588;2023-09-19T03:18:48;17.10;79.20
19847;DHT22;10084;50.518;8.588;2023-09-19T03:21:16;17.00;79.20
19847;DHT22;10084;50.518;8.588;2023-09-19T03:23:43;17.00;79.20
19847;DHT22;10084;50.518;8.588;2023-09-19T03:26:13;17.00;79.50
19847;DHT22;10084;50.518;8.588;2023-09-19T03:28:40;17.00;79.30
19847;DHT22;10084;50.518;8.588;2023-09-19T03:31:07;17.00;79.30
19847;DHT22;10084;50.518;8.588;2023-09-19T03:33:35;17.00;79.30
19847;DHT22;10084;50.518;8.588;2023-09-19T03:36:02;17.00;79.30
19847;DHT22;10084;50.518;8.588;2023-09-19T03:38:32;17.00;79.30
19847;DHT22;10084;50.518;8.588;2023-09-19T03:41:00;17.00;79.20
19847;DHT22;10084;50.518;8.588;2023-09-19T03:43:26;17.00;79.30
19847;DHT22;10084;50.518;8.588;2023-09-19T03:45:53;17.00;79.40
19847;DHT22;10084;50.518;8.588;2023-09-19T03:48:21;17.00;79.40
19847;DHT22;10084;50.518;8.588;2023-09-19T03:50:50;17.00;79.40
19847;DHT22;10084;50.518;8.588;2023-09-19T03:53:16;17.00;79.40
19847;DHT22;10084;50.518;8.588;2023-09-19T03:55:45;17.10;79.50
19847;DHT22;10084;50.518;8.588;2023-09-19T03:58:11;17.10;79.40
19847;DHT22;10084;50.518;8.588;2023-09-19T04:00:38;17.20;79.30
19847;DHT22;10084;50.518;8.588;2023-09-19T04:03:04;17.20;79.30
19847;DHT22;10084;50.518;8.588;2023-09-19T04:05:32;17.20;79.20
19847;DHT22;10084;50.518;8.588;2023-09-19T04:07:59;17.20;79.10
19847;DHT22;10084;50.518;8.588;2023-09-19T04:10:25;17.30;79.10
19847;DHT22;10084;50.518;8.588;2023-09-19T04:12:52;17.30;79.70
19847;DHT22;10084;50.518;8.588;2023-09-19T04:15:18;17.30;79.30
19847;DHT22;10084;50.518;8.588;2023-09-19T04:17:44;17.20;78.80
19847;DHT22;10084;50.518;8.588;2023-09-19T04:20:10;17.20;78.80
19847;DHT22;10084;50.518;8.588;2023-09-19T04:22:38;17.20;78.90
19847;DHT22;10084;50.518;8.588;2023-09-19T04:25:05;17.10;78.80
19847;DHT22;10084;50.518;8.588;2023-09-19T04:27:33;17.10;78.80
19847;DHT22;10084;50.518;8.588;2023-09-19T04:29:59;17.10;78.80
19847;DHT22;10084;50.518;8.588;2023-09-19T04:32:31;17.00;78.60
19847;DHT22;10084;50.518;8.588;2023-09-19T04:34:57;16.90;78.60
19847;DHT22;10084;50.518;8.588;2023-09-19T04:37:26;16.90;78.70
19847;DHT22;10084;50.518;8.588;2023-09-19T04:39:51;16.80;78.70
19847;DHT22;10084;50.518;8.588;2023-09-19T04:42:17;16.80;78.70
19847;DHT22;10084;50.518;8.588;2023-09-19T04:44:43;16.70;78.70
19847;DHT22;10084;50.518;8.588;2023-09-19T04:47:08;16.60;78.70
19847;DHT22;10084;50.518;8.588;2023-09-19T04:49:34;16.60;78.80
19847;DHT22;10084;50.518;8.588;2023-09-19T04:52:00;16.50;78.80
19847;DHT22;10084;50.518;8.588;2023-09-19T04:54:26;16.40;78.80
19847;DHT22;10084;50.518;8.588;2023-09-19T04:56:52;16.40;78.90
19847;DHT22;10084;50.518;8.588;2023-09-19T04:59:18;16.30;78.90
19847;DHT22;10084;50.518;8.588;2023-09-19T05:01:44;16.30;79.00
19847;DHT22;10084;50.518;8.588;2023-09-19T05:04:09;16.20;79.00
19847;DHT22;10084;50.518;8.588;2023-09-19T05:06:35;16.20;79.10
19847;DHT22;10084;50.518;8.588;2023-09-19T05:09:01;16.20;79.20
19847;DHT22;10084;50.518;8.588;2023-09-19T05:11:27;16.10;79.20
19847;DHT22;10084;50.518;8.588;2023-09-19T05:13:55;16.10;79.20
19847;DHT22;10084;50.518;8.588;2023-09-19T05:16:21;16.10;79.30
19847;DHT22;10084;50.518;8.588;2023-09-19T05:18:47;16.00;79.40
19847;DHT22;10084;50.518;8.588;2023-09-19T05:21:15;16.00;79.50
19847;DHT22;10084;50.518;8.588;2023-09-19T05:23:41;16.00;79.60
19847;DHT22;10084;50.518;8.588;2023-09-19T05:26:07;16.00;79.70
19847;DHT22;10084;50.518;8.588;2023-09-19T05:28:33;16.00;79.70
19847;DHT22;10084;50.518;8.588;2023-09-19T05:31:01;16.00;79.90
19847;DHT22;10084;50.518;8.588;2023-09-19T05:33:27;15.90;79.80
19847;DHT22;10084;50.518;8.588;2023-09-19T05:35:53;15.90;79.90
19847;DHT22;10084;50.518;8.588;2023-09-19T05:38:19;15.90;80.00
19847;DHT22;10084;50.518;8.588;2023-09-19T05:40:46;16.00;80.10
19847;DHT22;10084;50.518;8.588;2023-09-19T05:43:11;16.00;80.10
19847;DHT22;10084;50.518;8.588;2023-09-19T05:45:40;16.00;80.20
19847;DHT22;10084;50.518;8.588;2023-09-19T05:48:13;16.00;80.30
19847;DHT22;10084;50.518;8.588;2023-09-19T05:50:40;16.00;80.30
19847;DHT22;10084;50.518;8.588;2023-09-19T05:53:06;16.10;80.50
19847;DHT22;10084;50.518;8.588;2023-09-19T05:55:32;16.10;80.50
19847;DHT22;10084;50.518;8.588;2023-09-19T05:57:58;16.10;80.40
19847;DHT22;10084;50.518;8.588;2023-09-19T06:00:25;16.10;80.50
19847;DHT22;10084;50.518;8.588;2023-09-19T06:02:53;16.20;80.60
19847;DHT22;10084;50.518;8.588;2023-09-19T06:05:19;16.20;80.50
19847;DHT22;10084;50.518;8.588;2023-09-19T06:07:45;16.20;80.40
19847;DHT22;10084;50.518;8.588;2023-09-19T06:10:12;16.20;80.20
19847;DHT22;10084;50.518;8.588;2023-09-19T06:12:42;16.20;80.20
19847;DHT22;10084;50.518;8.588;2023-09-19T06:15:12;16.30;80.40
19847;DHT22;10084;50.518;8.588;2023-09-19T06:17:54;16.30;80.40
19847;DHT22;10084;50.518;8.588;2023-09-19T06:20:21;16.30;80.50
19847;DHT22;10084;50.518;8.588;2023-09-19T06:22:48;16.40;80.70
19847;DHT22;10084;50.518;8.588;2023-09-19T06:25:15;16.40;80.80
19847;DHT22;10084;50.518;8.588;2023-09-19T06:27:51;16.50;80.90
19847;DHT22;10084;50.518;8.588;2023-09-19T06:30:22;16.60;81.10
19847;DHT22;10084;50.518;8.588;2023-09-19T06:32:49;16.70;81.30
19847;DHT22;10084;50.518;8.588;2023-09-19T06:35:20;16.80;81.30
19847;DHT22;10084;50.518;8.588;2023-09-19T06:37:47;17.00;81.40
19847;DHT22;10084;50.518;8.588;2023-09-19T06:40:14;17.10;81.40
19847;DHT22;10084;50.518;8.588;2023-09-19T06:42:44;17.20;81.40
19847;DHT22;10084;50.518;8.588;2023-09-19T06:45:14;17.40;81.30
19847;DHT22;10084;50.518;8.588;2023-09-19T06:47:46;17.50;81.20
19847;DHT22;10084;50.518;8.588;2023-09-19T06:50:20;17.70;81.00
19847;DHT22;10084;50.518;8.588;2023-09-19T06:52:53;17.80;80.80
19847;DHT22;10084;50.518;8.588;2023-09-19T06:55:21;17.90;80.60
19847;DHT22;10084;50.518;8.588;2023-09-19T06:57:49;18.10;80.60
19847;DHT22;10084;50.518;8.588;2023-09-19T07:00:16;18.10;80.40
19847;DHT22;10084;50.518;8.588;2023-09-19T07:02:44;18.20;80.20
19847;DHT22;10084;50.518;8.588;2023-09-19T07:05:10;18.30;80.60
19847;DHT22;10084;50.518;8.588;2023-09-19T07:07:36;18.30;79.60
19847;DHT22;10084;50.518;8.588;2023-09-19T07:10:03;18.40;79.50
19847;DHT22;10084;50.518;8.588;2023-09-19T07:12:31;18.40;79.40
19847;DHT22;10084;50.518;8.588;2023-09-19T07:14:58;18.40;79.30
19847;DHT22;10084;50.518;8.588;2023-09-19T07:17:24;18.40;79.30
19847;DHT22;10084;50.518;8.588;2023-09-19T07:19:50;18.50;79.20
19847;DHT22;10084;50.518;8.588;2023-09-19T07:22:16;18.50;79.20
19847;DHT22;10084;50.518;8.588;2023-09-19T07:24:41;18.60;78.90
19847;DHT22;10084;50.518;8.588;2023-09-19T07:27:08;18.70;78.80
19847;DHT22;10084;50.518;8.588;2023-09-19T07:29:34;18.80;78.80
19847;DHT22;10084;50.518;8.588;2023-09-19T07:32:00;19.00;78.70
19847;DHT22;10084;50.518;8.588;2023-09-19T07:34:25;19.10;78.50
19847;DHT22;10084;50.518;8.588;2023-09-19T07:36:51;19.20;78.20
19847;DHT22;10084;50.518;8.588;2023-09-19T07:39:17;19.30;78.00
19847;DHT22;10084;50.518;8.588;2023-09-19T07:41:42;19.30;77.60
19847;DHT22;10084;50.518;8.588;2023-09-19T07:44:08;19.40;77.30
19847;DHT22;10084;50.518;8.588;2023-09-19T07:46:35;19.50;77.10
19847;DHT22;10084;50.518;8.588;2023-09-19T07:49:01;19.60;77.00
19847;DHT22;10084;50.518;8.588;2023-09-19T07:51:27;19.70;77.00
19847;DHT22;10084;50.518;8.588;2023-09-19T07:53:53;19.80;76.90
19847;DHT22;10084;50.518;8.588;2023-09-19T07:56:20;19.90;76.70
19847;DHT22;10084;50.518;8.588;2023-09-19T07:58:46;20.10;76.40
19847;DHT22;10084;50.518;8.588;2023-09-19T08:01:12;20.10;76.10
19847;DHT22;10084;50.518;8.588;2023-09-19T08:03:39;20.20;75.90
19847;DHT22;10084;50.518;8.588;2023-09-19T08:06:09;20.30;75.50
19847;DHT22;10084;50.518;8.588;2023-09-19T08:08:35;20.30;75.30
19847;DHT22;10084;50.518;8.588;2023-09-19T08:11:03;20.40;75.20
19847;DHT22;10084;50.518;8.588;2023-09-19T08:13:39;20.50;74.90
19847;DHT22;10084;50.518;8.588;2023-09-19T08:16:09;20.60;74.60
19847;DHT22;10084;50.518;8.588;2023-09-19T08:18:36;20.80;74.60
19847;DHT22;10084;50.518;8.588;2023-09-19T08:21:03;21.10;74.40
19847;DHT22;10084;50.518;8.588;2023-09-19T08:23:28;21.40;74.30
19847;DHT22;10084;50.518;8.588;2023-09-19T08:25:57;21.80;73.90
19847;DHT22;10084;50.518;8.588;2023-09-19T08:28:23;22.20;73.10
19847;DHT22;10084;50.518;8.588;2023-09-19T08:30:50;22.50;72.60
19847;DHT22;10084;50.518;8.588;2023-09-19T08:33:16;22.90;71.90
19847;DHT22;10084;50.518;8.588;2023-09-19T08:35:42;23.30;71.50
19847;DHT22;10084;50.518;8.588;2023-09-19T08:38:09;23.70;70.90
19847;DHT22;10084;50.518;8.588;2023-09-19T08:40:39;24.10;69.70
19847;DHT22;10084;50.518;8.588;2023-09-19T08:43:06;24.30;68.70
19847;DHT22;10084;50.518;8.588;2023-09-19T08:45:34;24.50;68.20
19847;DHT22;10084;50.518;8.588;2023-09-19T08:50:39;25.00;66.70
19847;DHT22;10084;50.518;8.588;2023-09-19T08:53:11;25.10;66.00
19847;DHT22;10084;50.518;8.588;2023-09-19T08:55:40;25.30;65.50
19847;DHT22;10084;50.518;8.588;2023-09-19T08:58:10;25.40;64.90
19847;DHT22;10084;50.518;8.588;2023-09-19T09:00:36;25.40;64.70
19847;DHT22;10084;50.518;8.588;2023-09-19T09:03:03;25.60;64.50
19847;DHT22;10084;50.518;8.588;2023-09-19T09:05:32;25.80;64.10
19847;DHT22;10084;50.518;8.588;2023-09-19T09:08:00;25.80;63.60
19847;DHT22;10084;50.518;8.588;2023-09-19T09:10:27;25.80;63.20
19847;DHT22;10084;50.518;8.588;2023-09-19T09:12:53;25.80;62.90
19847;DHT22;10084;50.518;8.588;2023-09-19T09:15:22;25.70;62.60
19847;DHT22;10084;50.518;8.588;2023-09-19T09:17:52;25.70;62.20
19847;DHT22;10084;50.518;8.588;2023-09-19T09:20:21;25.70;62.00
19847;DHT22;10084;50.518;8.588;2023-09-19T09:22:54;25.80;62.50
19847;DHT22;10084;50.518;8.588;2023-09-19T09:25:21;25.90;61.30
19847;DHT22;10084;50.518;8.588;2023-09-19T09:28:00;25.90;60.80
19847;DHT22;10084;50.518;8.588;2023-09-19T09:30:34;25.80;60.30
19847;DHT22;10084;50.518;8.588;2023-09-19T09:33:11;25.80;60.00
19847;DHT22;10084;50.518;8.588;2023-09-19T09:35:59;25.80;59.70
19847;DHT22;10084;50.518;8.588;2023-09-19T09:38:41;26.00;59.30
19847;DHT22;10084;50.518;8.588;2023-09-19T09:41:09;26.10;59.00
19847;DHT22;10084;50.518;8.588;2023-09-19T09:43:37;26.40;58.60
19847;DHT22;10084;50.518;8.588;2023-09-19T09:46:10;26.50;57.80
19847;DHT22;10084;50.518;8.588;2023-09-19T09:51:47;26.70;56.90
19847;DHT22;10084;50.518;8.588;2023-09-19T09:54:23;26.80;56.50
19847;DHT22;10084;50.518;8.588;2023-09-19T09:59:51;27.10;55.70
19847;DHT22;10084;50.518;8.588;2023-09-19T10:02:20;27.40;55.50
19847;DHT22;10084;50.518;8.588;2023-09-19T10:04:57;27.80;55.10
19847;DHT22;10084;50.518;8.588;2023-09-19T10:07:52;28.20;54.20
19847;DHT22;10084;50.518;8.588;2023-09-19T10:10:33;28.70;53.70
19847;DHT22;10084;50.518;8.588;2023-09-19T10:13:20;29.20;53.00
19847;DHT22;10084;50.518;8.588;2023-09-19T10:15:51;29.50;51.90
19847;DHT22;10084;50.518;8.588;2023-09-19T10:18:21;29.80;51.50
19847;DHT22;10084;50.518;8.588;2023-09-19T10:20:47;30.10;50.80
19847;DHT22;10084;50.518;8.588;2023-09-19T10:23:17;30.30;49.90
19847;DHT22;10084;50.518;8.588;2023-09-19T10:25:48;30.30;49.60
19847;DHT22;10084;50.518;8.588;2023-09-19T10:28:15;30.30;49.40
19847;DHT22;10084;50.518;8.588;2023-09-19T10:30:46;30.20;49.20
19847;DHT22;10084;50.518;8.588;2023-09-19T10:33:25;30.20;49.10
19847;DHT22;10084;50.518;8.588;2023-09-19T10:35:59;30.30;48.80
19847;DHT22;10084;50.518;8.588;2023-09-19T10:38:27;30.30;48.40
19847;DHT22;10084;50.518;8.588;2023-09-19T10:40:55;30.20;48.20
19847;DHT22;10084;50.518;8.588;2023-09-19T10:43:30;30.00;47.80
19847;DHT22;10084;50.518;8.588;2023-09-19T10:46:03;29.90;47.50
19847;DHT22;10084;50.518;8.588;2023-09-19T10:48:31;29.90;47.50
19847;DHT22;10084;50.518;8.588;2023-09-19T10:53:27;30.40;46.80
19847;DHT22;10084;50.518;8.588;2023-09-19T10:55:57;30.40;46.60
19847;DHT22;10084;50.518;8.588;2023-09-19T10:58:29;30.50;46.40
19847;DHT22;10084;50.518;8.588;2023-09-19T11:00:59;30.40;46.40
19847;DHT22;10084;50.518;8.588;2023-09-19T11:03:41;30.20;46.30
19847;DHT22;10084;50.518;8.588;2023-09-19T11:06:16;29.90;46.40
19847;DHT22;10084;50.518;8.588;2023-09-19T11:09:04;29.40;46.40
19847;DHT22;10084;50.518;8.588;2023-09-19T11:11:43;28.90;46.80
19847;DHT22;10084;50.518;8.588;2023-09-19T11:30:51;31.80;42.60
19847;DHT22;10084;50.518;8.588;2023-09-19T11:33:22;32.10;42.60
19847;DHT22;10084;50.518;8.588;2023-09-19T11:36:11;32.40;41.80
19847;DHT22;10084;50.518;8.588;2023-09-19T11:46:27;33.60;39.80
19847;DHT22;10084;50.518;8.588;2023-09-19T11:48:54;33.90;39.40
19847;DHT22;10084;50.518;8.588;2023-09-19T11:51:20;34.30;38.60
19847;DHT22;10084;50.518;8.588;2023-09-19T11:53:56;33.90;38.40
19847;DHT22;10084;50.518;8.588;2023-09-19T11:56:25;33.90;38.60
19847;DHT22;10084;50.518;8.588;2023-09-19T11:58:56;34.10;38.40
19847;DHT22;10084;50.518;8.588;2023-09-19T12:01:33;34.00;37.80
19847;DHT22;10084;50.518;8.588;2023-09-19T12:04:02;33.70;37.90
19847;DHT22;10084;50.518;8.588;2023-09-19T12:06:30;33.00;37.90
19847;DHT22;10084;50.518;8.588;2023-09-19T12:08:58;32.10;38.50
19847;DHT22;10084;50.518;8.588;2023-09-19T12:11:28;31.20;39.30
19847;DHT22;10084;50.518;8.588;2023-09-19T12:13:55;30.70;40.00
19847;DHT22;10084;50.518;8.588;2023-09-19T12:16:24;30.40;40.50
19847;DHT22;10084;50.518;8.588;2023-09-19T12:18:50;30.20;40.70
19847;DHT22;10084;50.518;8.588;2023-09-19T12:24:06;29.70;40.70
19847;DHT22;10084;50.518;8.588;2023-09-19T12:26:39;29.40;40.90
19847;DHT22;10084;50.518;8.588;2023-09-19T12:29:16;29.10;41.20
19847;DHT22;10084;50.518;8.588;2023-09-19T12:31:53;28.80;41.30
19847;DHT22;10084;50.518;8.588;2023-09-19T12:34:25;28.40;41.20
19847;DHT22;10084;50.518;8.588;2023-09-19T12:37:13;28.10;41.40
19847;DHT22;10084;50.518;8.588;2023-09-19T12:39:53;27.80;41.40
19847;DHT22;10084;50.518;8.588;2023-09-19T12:42:24;27.60;41.60
19847;DHT22;10084;50.518;8.588;2023-09-19T12:44:54;27.40;42.20
19847;DHT22;10084;50.518;8.588;2023-09-19T12:47:24;27.30;41.50
19847;DHT22;10084;50.518;8.588;2023-09-19T12:50:06;27.10;41.40
19847;DHT22;10084;50.518;8.588;2023-09-19T12:52:44;27.00;41.30
19847;DHT22;10084;50.518;8.588;2023-09-19T12:55:31;26.80;41.20
19847;DHT22;10084;50.518;8.588;2023-09-19T12:58:12;26.60;41.30
19847;DHT22;10084;50.518;8.588;2023-09-19T13:00:45;26.40;41.40
19847;DHT22;10084;50.518;8.588;2023-09-19T13:05:55;26.00;41.50
19847;DHT22;10084;50.518;8.588;2023-09-19T13:11:02;25.60;41.60
19847;DHT22;10084;50.518;8.588;2023-09-19T13:13:27;25.50;41.80
19847;DHT22;10084;50.518;8.588;2023-09-19T13:15:55;25.30;41.80
19847;DHT22;10084;50.518;8.588;2023-09-19T13:18:23;25.30;42.70
19847;DHT22;10084;50.518;8.588;2023-09-19T13:21:14;25.20;42.00
19847;DHT22;10084;50.518;8.588;2023-09-19T13:23:50;25.20;42.10
19847;DHT22;10084;50.518;8.588;2023-09-19T13:26:16;25.20;42.10
19847;DHT22;10084;50.518;8.588;2023-09-19T13:28:42;25.20;42.10
19847;DHT22;10084;50.518;8.588;2023-09-19T13:31:09;25.20;42.10
19847;DHT22;10084;50.518;8.588;2023-09-19T13:33:43;25.20;42.20
19847;DHT22;10084;50.518;8.588;2023-09-19T13:36:09;25.10;42.30
19847;DHT22;10084;50.518;8.588;2023-09-19T13:38:35;25.00;42.30
19847;DHT22;10084;50.518;8.588;2023-09-19T13:41:00;24.90;42.40
19847;DHT22;10084;50.518;8.588;2023-09-19T13:43:27;24.80;42.50
19847;DHT22;10084;50.518;8.588;2023-09-19T13:45:54;24.70;42.70
19847;DHT22;10084;50.518;8.588;2023-09-19T13:48:20;24.60;42.90
19847;DHT22;10084;50.518;8.588;2023-09-19T13:50:48;24.50;43.00
19847;DHT22;10084;50.518;8.588;2023-09-19T13:53:14;24.40;43.10
19847;DHT22;10084;50.518;8.588;2023-09-19T13:55:40;24.20;43.30
19847;DHT22;10084;50.518;8.588;2023-09-19T13:58:06;24.20;43.50
19847;DHT22;10084;50.518;8.588;2023-09-19T14:00:33;24.10;43.60
19847;DHT22;10084;50.518;8.588;2023-09-19T14:03:00;24.00;43.60
19847;DHT22;10084;50.518;8.588;2023-09-19T14:05:27;23.90;43.70
19847;DHT22;10084;50.518;8.588;2023-09-19T14:07:53;23.90;43.90
19847;DHT22;10084;50.518;8.588;2023-09-19T14:10:21;23.80;44.00
19847;DHT22;10084;50.518;8.588;2023-09-19T14:12:47;23.70;44.10
19847;DHT22;10084;50.518;8.588;2023-09-19T14:15:13;23.60;44.30
19847;DHT22;10084;50.518;8.588;2023-09-19T14:17:39;23.50;44.40
19847;DHT22;10084;50.518;8.588;2023-09-19T14:20:08;23.40;44.50
19847;DHT22;10084;50.518;8.588;2023-09-19T14:22:36;23.40;44.70
19847;DHT22;10084;50.518;8.588;2023-09-19T14:25:03;23.30;44.90
19847;DHT22;10084;50.518;8.588;2023-09-19T14:27:29;23.20;44.90
19847;DHT22;10084;50.518;8.588;2023-09-19T14:29:55;23.20;45.00
19847;DHT22;10084;50.518;8.588;2023-09-19T14:32:22;23.10;45.80
19847;DHT22;10084;50.518;8.588;2023-09-19T14:34:48;23.10;45.20
19847;DHT22;10084;50.518;8.588;2023-09-19T14:37:14;23.00;45.20
19847;DHT22;10084;50.518;8.588;2023-09-19T14:39:42;22.90;45.30
19847;DHT22;10084;50.518;8.588;2023-09-19T14:42:10;22.90;45.50
19847;DHT22;10084;50.518;8.588;2023-09-19T14:44:36;22.90;45.60
19847;DHT22;10084;50.518;8.588;2023-09-19T14:47:03;22.80;45.70
19847;DHT22;10084;50.518;8.588;2023-09-19T14:49:35;22.80;45.70
19847;DHT22;10084;50.518;8.588;2023-09-19T14:52:09;22.70;45.80
19847;DHT22;10084;50.518;8.588;2023-09-19T14:54:36;22.70;45.90
19847;DHT22;10084;50.518;8.588;2023-09-19T14:57:04;22.60;46.00
19847;DHT22;10084;50.518;8.588;2023-09-19T14:59:33;22.50;46.10
19847;DHT22;10084;50.518;8.588;2023-09-19T15:02:05;22.50;46.20
19847;DHT22;10084;50.518;8.588;2023-09-19T15:04:30;22.40;46.30
19847;DHT22;10084;50.518;8.588;2023-09-19T15:06:56;22.40;46.40
19847;DHT22;10084;50.518;8.588;2023-09-19T15:09:24;22.30;46.40
19847;DHT22;10084;50.518;8.588;2023-09-19T15:11:55;22.30;46.50
19847;DHT22;10084;50.518;8.588;2023-09-19T15:14:24;22.30;46.60
19847;DHT22;10084;50.518;8.588;2023-09-19T15:16:55;22.30;46.70
19847;DHT22;10084;50.518;8.588;2023-09-19T15:19:20;22.30;46.70
19847;DHT22;10084;50.518;8.588;2023-09-19T15:21:48;22.30;46.80
19847;DHT22;10084;50.518;8.588;2023-09-19T15:24:14;22.30;46.80
19847;DHT22;10084;50.518;8.588;2023-09-19T15:26:40;22.30;46.90
19847;DHT22;10084;50.518;8.588;2023-09-19T15:29:06;22.30;46.80
19847;DHT22;10084;50.518;8.588;2023-09-19T15:31:33;22.30;46.90
19847;DHT22;10084;50.518;8.588;2023-09-19T15:33:58;22.30;46.80
19847;DHT22;10084;50.518;8.588;2023-09-19T15:36:24;22.20;46.90
19847;DHT22;10084;50.518;8.588;2023-09-19T15:38:55;22.20;46.90
19847;DHT22;10084;50.518;8.588;2023-09-19T15:41:26;22.20;47.00
19847;DHT22;10084;50.518;8.588;2023-09-19T15:43:53;22.10;47.00
19847;DHT22;10084;50.518;8.588;2023-09-19T15:46:19;22.00;47.10
19847;DHT22;10084;50.518;8.588;2023-09-19T15:48:45;22.00;47.30
19847;DHT22;10084;50.518;8.588;2023-09-19T15:51:12;22.00;47.40
19847;DHT22;10084;50.518;8.588;2023-09-19T15:53:46;22.00;47.50
19847;DHT22;10084;50.518;8.588;2023-09-19T15:56:18;21.90;47.50
19847;DHT22;10084;50.518;8.588;2023-09-19T15:58:47;21.90;47.60
19847;DHT22;10084;50.518;8.588;2023-09-19T16:01:14;21.80;47.60
19847;DHT22;10084;50.518;8.588;2023-09-19T16:03:45;21.80;47.70
19847;DHT22;10084;50.518;8.588;2023-09-19T16:06:16;21.70;47.70
19847;DHT22;10084;50.518;8.588;2023-09-19T16:08:45;21.70;47.90
19847;DHT22;10084;50.518;8.588;2023-09-19T16:11:11;21.60;47.90
19847;DHT22;10084;50.518;8.588;2023-09-19T16:13:38;21.60;48.00
19847;DHT22;10084;50.518;8.588;2023-09-19T16:16:04;21.60;48.10
19847;DHT22;10084;50.518;8.588;2023-09-19T16:18:30;21.60;48.10
19847;DHT22;10084;50.518;8.588;2023-09-19T16:21:06;21.60;48.20
19847;DHT22;10084;50.518;8.588;2023-09-19T16:23:33;21.50;48.20
19847;DHT22;10084;50.518;8.588;2023-09-19T16:26:06;21.50;48.30
19847;DHT22;10084;50.518;8.588;2023-09-19T16:28:33;21.40;48.30